createdAt,value
2024-03-02T00:01:32.972Z,97971.05
2024-03-02T00:04:20.101Z,97978.05
2024-03-02T00:07:03.987Z,97970.96
2024-03-02T00:09:44.203Z,97964.57
2024-03-02T00:15:19.360Z,97962.70
2024-03-02T00:17:48.151Z,97963.52
2024-03-02T00:20:36.976Z,97960.88
2024-03-02T00:23:12.812Z,97958.36
2024-03-02T00:25:46.896Z,97951.40
2024-03-02T00:28:40.364Z,97946.00
2024-03-02T00:31:15.704Z,97941.13
2024-03-02T00:33:54.920Z,97942.14
2024-03-02T00:36:33.750Z,97944.52
2024-03-02T00:39:19.325Z,97941.66
2024-03-02T00:42:10.193Z,97940.05
2024-03-02T00:44:56.909Z,97935.70
2024-03-02T00:47:46.861Z,97941.44
2024-03-02T00:50:31.869Z,97945.42
2024-03-02T00:53:05.460Z,97942.42
2024-03-02T00:55:53.907Z,97944.34
2024-03-02T00:58:30.271Z,97948.54
2024-03-02T01:01:10.991Z,97953.09
2024-03-02T01:03:39.747Z,97964.91
2024-03-02T01:06:10.882Z,97971.87
2024-03-02T01:08:46.344Z,97979.04
2024-03-02T01:11:42.895Z,97990.83
2024-03-02T01:14:32.232Z,98005.45
2024-03-02T01:17:06.214Z,98028.86
2024-03-02T01:19:40.715Z,98050.41
2024-03-02T01:22:28.252Z,98064.31
2024-03-02T01:24:58.502Z,98084.91
2024-03-02T01:27:32.764Z,98120.66
2024-03-02T01:30:37.402Z,98154.13
2024-03-02T01:33:13.553Z,98191.44
2024-03-02T01:35:43.025Z,98222.36
2024-03-02T01:38:16.114Z,98255.68
2024-03-02T01:40:49.445Z,98278.34
2024-03-02T01:43:25.164Z,98262.27
2024-03-02T01:45:54.535Z,98310.95
2024-03-02T01:48:28.208Z,98355.47
2024-03-02T01:51:12.127Z,98407.04
2024-03-02T01:53:41.623Z,98446.91
2024-03-02T01:56:13.909Z,98487.50
2024-03-02T01:58:59.781Z,98538.45
2024-03-02T02:01:37.865Z,98598.01
2024-03-02T02:04:12.960Z,98662.60
2024-03-02T02:06:48.615Z,98716.67
2024-03-02T02:09:31.868Z,98773.17
2024-03-02T02:12:34.909Z,98831.17
2024-03-02T02:15:30.242Z,98893.67
2024-03-02T02:18:14.788Z,98940.44
2024-03-02T02:21:17.061Z,98977.51
2024-03-02T02:23:55.967Z,99015.65
2024-03-02T02:26:29.865Z,99042.22
2024-03-02T02:29:24.833Z,99064.14
2024-03-02T02:31:54.077Z,99090.03
2024-03-02T02:34:28.387Z,99145.65
2024-03-02T02:37:07.004Z,99180.73
2024-03-02T02:39:44.937Z,99212.00
2024-03-02T02:42:24.872Z,99226.14
2024-03-02T02:45:03.589Z,99226.66
2024-03-02T02:47:36.720Z,99216.30
2024-03-02T02:50:39.254Z,99204.54
2024-03-02T02:53:12.859Z,99202.11
2024-03-02T02:55:46.301Z,99215.42
2024-03-02T02:58:47.294Z,99218.36
2024-03-02T03:01:22.349Z,99220.79
2024-03-02T03:03:58.048Z,99219.74
2024-03-02T03:06:33.686Z,99211.63
2024-03-02T03:09:04.057Z,99209.23
2024-03-02T03:11:43.818Z,99208.38
2024-03-02T03:14:17.509Z,99198.88
2024-03-02T03:16:51.987Z,99192.66
2024-03-02T03:19:40.988Z,99188.69
2024-03-02T03:22:20.018Z,99183.35
2024-03-02T03:25:13.312Z,99166.77
2024-03-02T03:27:47.571Z,99154.84
2024-03-02T03:30:23.285Z,99149.49
2024-03-02T03:32:56.187Z,99162.64
2024-03-02T03:35:30.053Z,99145.90
2024-03-02T03:38:07.430Z,99130.17
2024-03-02T03:40:43.489Z,99094.94
2024-03-02T03:43:16.172Z,99054.69
2024-03-02T03:45:47.556Z,99033.80
2024-03-02T03:48:42.675Z,99008.06
2024-03-02T03:51:21.778Z,98996.36
2024-03-02T03:53:54.458Z,98903.99
2024-03-02T03:56:26.520Z,98806.25
2024-03-02T03:59:04.174Z,98793.33
2024-03-02T04:01:37.362Z,98787.65
2024-03-02T04:04:13.053Z,98780.94
2024-03-02T04:06:46.066Z,98777.84
2024-03-02T04:09:19.066Z,98771.30
2024-03-02T04:11:50.175Z,98758.20
2024-03-02T04:14:27.859Z,98747.98
2024-03-02T04:16:58.305Z,98743.33
2024-03-02T04:19:28.619Z,98736.25
2024-03-02T04:22:03.218Z,98744.69
2024-03-02T04:24:44.668Z,98736.42
2024-03-02T04:27:14.864Z,98729.71
2024-03-02T04:29:44.147Z,98722.83
2024-03-02T04:32:23.891Z,98713.86
2024-03-02T04:35:10.104Z,98702.33
2024-03-02T04:37:50.473Z,98698.04
2024-03-02T04:40:25.688Z,98688.88
2024-03-02T04:43:11.673Z,98677.83
2024-03-02T04:45:45.470Z,98659.89
2024-03-02T04:48:21.822Z,98631.38
2024-03-02T04:50:55.362Z,98615.48
2024-03-02T04:53:36.429Z,98604.05
2024-03-02T04:56:26.517Z,98595.34
2024-03-02T04:58:59.506Z,98578.02
2024-03-02T05:01:31.346Z,98569.66
2024-03-02T05:04:05.125Z,98563.05
2024-03-02T05:06:37.445Z,98551.79
2024-03-02T05:09:19.868Z,98538.59
2024-03-02T05:12:36.484Z,98522.82
2024-03-02T05:15:11.898Z,98505.12
2024-03-02T05:17:51.572Z,98492.45
2024-03-02T05:20:28.267Z,98478.50
2024-03-02T05:23:07.143Z,98468.55
2024-03-02T05:25:50.173Z,98460.69
2024-03-02T05:28:22.954Z,98445.02
2024-03-02T05:31:04.763Z,98442.31
2024-03-02T05:33:35.828Z,98441.32
2024-03-02T05:36:22.198Z,98430.84
2024-03-02T05:38:51.339Z,98428.30
2024-03-02T05:41:33.283Z,98420.91
2024-03-02T05:44:09.752Z,98419.70
2024-03-02T05:46:52.360Z,98411.27
2024-03-02T05:49:26.682Z,98410.63
2024-03-02T05:52:02.990Z,98413.14
2024-03-02T05:54:41.782Z,98413.56
2024-03-02T05:57:48.821Z,98423.27
2024-03-02T06:00:25.854Z,98431.98
2024-03-02T06:02:58.219Z,98435.94
2024-03-02T06:05:40.429Z,98441.48
2024-03-02T06:08:23.125Z,98431.31
2024-03-02T06:11:00.126Z,98426.09
2024-03-02T06:13:31.555Z,98425.31
2024-03-02T06:16:14.582Z,98426.50
2024-03-02T06:19:04.407Z,98447.16
2024-03-02T06:21:38.111Z,98505.23
2024-03-02T06:24:17.845Z,98577.95
2024-03-02T06:26:49.472Z,98629.55
2024-03-02T06:29:25.654Z,98666.88
2024-03-02T06:32:04.062Z,98690.04
2024-03-02T06:34:44.198Z,98710.02
2024-03-02T06:37:17.924Z,98736.27
2024-03-02T06:39:50.149Z,98758.34
2024-03-02T06:42:27.911Z,98768.60
2024-03-02T06:45:02.498Z,98775.52
2024-03-02T06:47:54.200Z,98771.41
2024-03-02T06:50:31.613Z,98768.88
2024-03-02T06:53:06.433Z,98762.71
2024-03-02T06:55:40.255Z,98768.02
2024-03-02T06:58:15.021Z,98768.92
2024-03-02T07:00:49.770Z,98767.05
2024-03-02T07:03:19.146Z,98761.32
2024-03-02T07:05:53.543Z,98761.60
2024-03-02T07:08:24.439Z,98769.52
2024-03-02T07:10:58.586Z,98771.05
2024-03-02T07:13:41.215Z,98766.02
2024-03-02T07:16:12.255Z,98758.34
2024-03-02T07:19:11.243Z,98745.43
2024-03-02T07:22:01.739Z,98728.61
2024-03-02T07:24:54.840Z,98710.09
2024-03-02T07:27:29.225Z,98720.02
2024-03-02T07:30:34.397Z,98719.06
2024-03-02T07:35:42.786Z,98735.65
2024-03-02T07:38:14.451Z,98674.25
2024-03-02T07:40:43.850Z,98669.80
2024-03-02T07:43:18.942Z,98661.90
2024-03-02T07:45:47.955Z,98659.29
2024-03-02T07:48:16.864Z,98657.33
2024-03-02T07:50:47.666Z,98646.65
2024-03-02T07:53:16.930Z,98638.08
2024-03-02T07:55:45.612Z,98628.20
2024-03-02T07:58:19.608Z,98613.05
2024-03-02T08:01:04.355Z,98593.98
2024-03-02T08:03:57.764Z,98580.61
2024-03-02T08:06:28.998Z,98562.50
2024-03-02T08:09:02.257Z,98547.90
2024-03-02T08:11:42.657Z,98544.55
2024-03-02T08:14:10.797Z,98533.47
2024-03-02T08:16:51.056Z,98531.17
2024-03-02T08:19:24.221Z,98517.09
2024-03-02T08:21:57.057Z,98507.30
2024-03-02T08:24:45.200Z,98491.98
2024-03-02T08:27:24.745Z,98487.17
2024-03-02T08:29:54.898Z,98474.06
2024-03-02T08:32:24.029Z,98480.27
2024-03-02T08:34:51.866Z,98470.80
2024-03-02T08:37:45.807Z,98453.91
2024-03-02T08:40:18.744Z,98437.02
2024-03-02T08:42:57.041Z,98431.02
2024-03-02T08:45:30.946Z,98419.04
2024-03-02T08:48:01.465Z,98416.38
2024-03-02T08:50:39.206Z,98412.96
2024-03-02T08:53:09.188Z,98399.70
2024-03-02T08:55:37.203Z,98398.83
2024-03-02T08:58:10.979Z,98381.45
2024-03-02T09:00:39.961Z,98378.32
2024-03-02T09:03:12.685Z,98377.04
2024-03-02T09:05:46.389Z,98374.91
2024-03-02T09:08:14.778Z,98369.54
2024-03-02T09:10:46.548Z,98358.35
2024-03-02T09:13:21.256Z,98345.39
2024-03-02T09:16:04.306Z,98329.89
2024-03-02T09:18:40.249Z,98318.81
2024-03-02T09:21:18.142Z,98314.04
2024-03-02T09:23:47.757Z,98301.50
2024-03-02T09:26:21.920Z,98300.80
2024-03-02T09:29:01.406Z,98299.46
2024-03-02T09:31:42.773Z,98290.80
2024-03-02T09:34:18.752Z,98279.79
2024-03-02T09:37:07.929Z,98264.92
2024-03-02T09:39:36.331Z,98242.17
2024-03-02T09:42:12.645Z,98226.61
2024-03-02T09:44:46.755Z,98208.52
2024-03-02T09:47:15.647Z,98203.42
2024-03-02T09:49:51.008Z,98201.26
2024-03-02T09:52:27.448Z,98193.10
2024-03-02T09:55:10.518Z,98191.18
2024-03-02T09:57:41.934Z,98189.73
2024-03-02T10:00:10.622Z,98185.08
2024-03-02T10:02:40.675Z,98178.37
2024-03-02T10:05:11.780Z,98177.34
2024-03-02T10:07:39.866Z,98174.70
2024-03-02T10:10:19.704Z,98170.23
2024-03-02T10:13:09.887Z,98157.64
2024-03-02T10:15:53.779Z,98150.42
2024-03-02T10:18:39.080Z,98142.66
2024-03-02T10:21:15.891Z,98126.67
2024-03-02T10:24:12.320Z,98126.08
2024-03-02T10:26:41.010Z,98111.38
2024-03-02T10:29:13.045Z,98111.52
2024-03-02T10:31:42.661Z,98113.45
2024-03-02T10:34:11.472Z,98124.71
2024-03-02T10:36:43.378Z,98133.11
2024-03-02T10:39:32.864Z,98141.86
2024-03-02T10:42:20.001Z,98144.89
2024-03-02T10:45:18.715Z,98137.93
2024-03-02T10:48:02.139Z,98145.98
2024-03-02T10:50:47.674Z,98139.86
2024-03-02T10:53:20.719Z,98143.63
2024-03-02T10:55:58.708Z,98145.48
2024-03-02T10:58:37.227Z,98145.09
2024-03-02T11:01:09.849Z,98139.92
2024-03-02T11:03:58.007Z,98153.13
2024-03-02T11:06:31.151Z,98159.20
2024-03-02T11:09:04.777Z,98158.94
2024-03-02T11:11:38.880Z,98168.41
2024-03-02T11:17:26.317Z,98179.30
2024-03-02T11:19:59.343Z,98175.35
2024-03-02T11:22:31.385Z,98179.08
2024-03-02T11:25:01.034Z,98187.30
2024-03-02T11:27:58.597Z,98191.33
2024-03-02T11:30:40.450Z,98177.23
2024-03-02T11:33:13.792Z,98164.40
2024-03-02T11:35:52.451Z,98169.20
2024-03-02T11:38:28.745Z,98165.86
2024-03-02T11:41:03.340Z,98164.85
2024-03-02T11:43:31.416Z,98164.58
2024-03-02T11:46:11.600Z,98172.84
2024-03-02T11:48:41.042Z,98180.59
2024-03-02T11:51:13.777Z,98187.02
2024-03-02T11:53:51.365Z,98197.98
2024-03-02T11:56:19.426Z,98191.98
2024-03-02T11:58:55.587Z,98190.20
2024-03-02T12:01:23.624Z,98186.77
2024-03-02T12:04:16.916Z,98187.95
2024-03-02T12:06:48.237Z,98167.67
2024-03-02T12:09:22.802Z,98179.44
2024-03-02T12:12:07.264Z,98194.66
2024-03-02T12:15:00.476Z,98211.13
2024-03-02T12:17:33.679Z,98231.75
2024-03-02T12:20:05.247Z,98248.42
2024-03-02T12:22:33.530Z,98273.33
2024-03-02T12:25:07.521Z,98288.48
2024-03-02T12:27:40.901Z,98304.66
2024-03-02T12:30:23.391Z,98315.64
2024-03-02T12:32:56.145Z,98326.24
2024-03-02T12:35:27.176Z,98333.76
2024-03-02T12:38:08.365Z,98343.46
2024-03-02T12:40:43.996Z,98351.40
2024-03-02T12:43:16.843Z,98361.50
2024-03-02T12:45:50.544Z,98370.95
2024-03-02T12:48:38.493Z,98375.52
2024-03-02T12:51:07.866Z,98386.05
2024-03-02T12:53:45.943Z,98406.97
2024-03-02T12:56:24.454Z,98428.05
2024-03-02T12:58:58.773Z,98438.66
2024-03-02T13:01:30.102Z,98458.38
2024-03-02T13:04:19.628Z,98476.56
2024-03-02T13:07:07.881Z,98490.87
2024-03-02T13:09:39.906Z,98509.90
2024-03-02T13:12:13.201Z,98526.85
2024-03-02T13:14:56.422Z,98549.81
2024-03-02T13:17:34.617Z,98559.77
2024-03-02T13:20:12.228Z,98583.55
2024-03-02T13:22:40.440Z,98601.25
2024-03-02T13:25:13.809Z,98626.10
2024-03-02T13:28:16.852Z,98650.48
2024-03-02T13:30:44.788Z,98673.93
2024-03-02T13:33:13.513Z,98691.49
2024-03-02T13:35:46.968Z,98712.98
2024-03-02T13:38:30.069Z,98717.20
2024-03-02T13:41:06.552Z,98726.77
2024-03-02T13:44:28.403Z,98741.87
2024-03-02T13:46:59.509Z,98763.30
2024-03-02T13:49:48.278Z,98790.30
2024-03-02T13:52:25.776Z,98819.14
2024-03-02T13:54:58.860Z,98838.42
2024-03-02T13:57:53.469Z,98848.92
2024-03-02T14:00:28.300Z,98854.18
2024-03-02T14:03:05.361Z,98862.81
2024-03-02T14:05:40.912Z,98868.05
2024-03-02T14:08:40.906Z,98873.23
2024-03-02T14:11:16.928Z,98872.64
2024-03-02T14:13:56.426Z,98876.88
2024-03-02T14:16:24.310Z,98885.38
2024-03-02T14:22:39.747Z,98887.84
2024-03-02T14:25:34.708Z,98895.65
2024-03-02T14:28:26.710Z,98898.96
2024-03-02T14:31:02.246Z,98905.38
2024-03-02T14:33:38.356Z,98910.29
2024-03-02T14:36:07.976Z,98903.81
2024-03-02T14:38:41.651Z,98904.20
2024-03-02T14:41:26.233Z,98906.30
2024-03-02T14:47:15.529Z,98903.65
2024-03-02T14:49:46.034Z,98910.02
2024-03-02T14:52:14.268Z,98909.62
2024-03-02T14:54:56.424Z,98900.13
2024-03-02T14:57:34.309Z,98887.85
2024-03-02T15:00:16.013Z,98881.16
2024-03-02T15:02:52.071Z,98875.63
2024-03-02T15:13:04.115Z,98851.95
2024-03-02T15:16:24.223Z,98849.28
2024-03-02T15:18:53.123Z,98834.69
2024-03-02T15:21:23.625Z,98832.56
2024-03-02T15:23:51.938Z,98829.63
2024-03-02T15:26:26.433Z,98821.11
2024-03-02T15:28:59.731Z,98813.19
2024-03-02T15:31:27.905Z,98803.92
2024-03-02T15:34:05.034Z,98791.86
2024-03-02T15:36:36.978Z,98780.06
2024-03-02T15:39:13.877Z,98779.09
2024-03-02T15:41:44.965Z,98779.36
2024-03-02T15:44:13.244Z,98773.98
2024-03-02T15:46:41.429Z,98775.23
2024-03-02T15:49:17.448Z,98776.18
2024-03-02T15:51:46.487Z,98778.23
2024-03-02T15:54:20.238Z,98780.17
2024-03-02T15:56:51.219Z,98785.24
2024-03-02T15:59:19.290Z,98789.62
2024-03-02T16:01:47.876Z,98791.98
2024-03-02T16:04:21.202Z,98789.41
2024-03-02T16:09:41.731Z,98800.20
2024-03-02T16:12:10.802Z,98804.49
2024-03-02T16:14:38.747Z,98803.63
2024-03-02T16:17:08.602Z,98804.98
2024-03-02T16:19:44.712Z,98808.31
2024-03-02T16:22:38.928Z,98812.83
2024-03-02T16:25:08.306Z,98821.88
2024-03-02T16:27:36.715Z,98826.36
2024-03-02T16:30:13.702Z,98829.77
2024-03-02T16:32:48.706Z,98829.36
2024-03-02T16:35:17.597Z,98831.73
2024-03-02T16:37:50.487Z,98831.11
2024-03-02T16:40:18.391Z,98832.97
2024-03-02T16:42:46.873Z,98833.59
2024-03-02T16:45:20.805Z,98832.48
2024-03-02T16:47:55.313Z,98830.02
2024-03-02T16:50:23.541Z,98822.31
2024-03-02T16:53:09.013Z,98823.75
2024-03-02T16:55:40.068Z,98822.55
2024-03-02T16:58:10.720Z,98825.13
2024-03-02T17:00:43.937Z,98824.70
2024-03-02T17:03:14.765Z,98823.27
2024-03-02T17:05:42.996Z,98824.91
2024-03-02T17:08:13.027Z,98822.25
2024-03-02T17:13:35.273Z,98820.34
2024-03-02T17:16:20.014Z,98817.16
2024-03-02T17:18:48.471Z,98818.23
2024-03-02T17:21:19.560Z,98813.13
2024-03-02T17:23:49.074Z,98812.02
2024-03-02T17:26:17.464Z,98805.16
2024-03-02T17:28:52.592Z,98801.73
2024-03-02T17:34:47.813Z,98783.63
2024-03-02T17:37:23.066Z,98783.29
2024-03-02T17:39:56.183Z,98774.27
2024-03-02T17:42:29.842Z,98768.41
2024-03-02T17:45:02.813Z,98760.27
2024-03-02T17:47:46.685Z,98758.91
2024-03-02T17:50:20.595Z,98750.42
2024-03-02T17:52:57.664Z,98742.64
2024-03-02T17:55:26.347Z,98741.60
2024-03-02T17:58:09.349Z,98739.86
2024-03-02T18:00:38.467Z,98732.55
2024-03-02T18:03:11.972Z,98726.34
2024-03-02T18:05:43.229Z,98725.15
2024-03-02T18:08:12.423Z,98720.33
2024-03-02T18:10:45.330Z,98712.21
2024-03-02T18:13:26.077Z,98706.86
2024-03-02T18:15:58.648Z,98699.47
2024-03-02T18:18:39.845Z,98696.73
2024-03-02T18:21:17.536Z,98689.17
2024-03-02T18:23:48.594Z,98687.98
2024-03-02T18:26:30.070Z,98681.81
2024-03-02T18:29:06.142Z,98677.49
2024-03-02T18:31:35.264Z,98671.05
2024-03-02T18:34:03.428Z,98664.30
2024-03-02T18:36:36.920Z,98658.45
2024-03-02T18:39:07.212Z,98656.19
2024-03-02T18:41:35.410Z,98649.98
2024-03-02T18:44:08.605Z,98647.06
2024-03-02T18:46:45.866Z,98638.98
2024-03-02T18:53:20.618Z,98624.30
2024-03-02T18:55:53.609Z,98627.77
2024-03-02T18:58:42.769Z,98623.77
2024-03-02T19:01:22.209Z,98614.80
2024-03-02T19:04:02.190Z,98609.39
2024-03-02T19:06:35.795Z,98603.83
2024-03-02T19:09:06.907Z,98599.48
2024-03-02T19:12:00.163Z,98594.27
2024-03-02T19:14:34.690Z,98586.84
2024-03-02T19:17:43.243Z,98585.61
2024-03-02T19:20:12.854Z,98575.21
2024-03-02T19:23:29.118Z,98576.61
2024-03-02T19:26:06.308Z,98568.83
2024-03-02T19:28:44.011Z,98565.70
2024-03-02T19:31:34.251Z,98559.98
2024-03-02T19:34:04.393Z,98554.44
2024-03-02T19:36:32.416Z,98548.03
2024-03-02T19:39:00.865Z,98544.05
2024-03-02T19:41:39.908Z,98543.02
2024-03-02T19:44:21.589Z,98536.79
2024-03-02T19:46:49.902Z,98528.32
2024-03-02T19:49:22.784Z,98524.33
2024-03-02T20:03:35.973Z,98509.67
2024-03-02T20:06:13.253Z,98455.66
2024-03-02T20:08:45.919Z,98457.13
2024-03-02T20:11:17.392Z,98461.55
2024-03-02T20:14:11.353Z,98458.69
2024-03-02T20:16:44.138Z,98454.55
2024-03-02T20:19:13.023Z,98455.07
2024-03-02T20:22:02.138Z,98455.02
2024-03-02T20:24:32.135Z,98441.65
2024-03-02T20:27:32.669Z,98430.48
2024-03-02T20:32:53.805Z,98423.00
2024-03-02T20:35:47.239Z,98420.55
2024-03-02T20:38:16.994Z,98409.09
2024-03-02T20:40:54.843Z,98411.31
2024-03-02T20:54:24.257Z,98384.26
2024-03-02T20:56:59.416Z,98384.20
2024-03-02T20:59:32.249Z,98380.66
2024-03-02T21:02:05.983Z,98374.70
2024-03-02T21:04:34.310Z,98375.29
2024-03-02T21:07:07.586Z,98371.54
2024-03-02T21:09:37.285Z,98362.63
2024-03-02T21:12:29.602Z,98355.41
2024-03-02T21:14:58.075Z,98352.66
2024-03-02T21:17:36.081Z,98351.95
2024-03-02T21:20:08.147Z,98341.33
2024-03-02T21:22:37.694Z,98334.36
2024-03-02T21:25:13.379Z,98322.15
2024-03-02T21:27:42.175Z,98315.40
2024-03-02T21:30:10.860Z,98311.61
2024-03-02T21:32:45.171Z,98305.25
2024-03-02T21:35:24.379Z,98298.37
2024-03-02T21:37:58.326Z,98294.81
2024-03-02T21:40:26.727Z,98287.11
2024-03-02T21:43:06.719Z,98283.40
2024-03-02T21:45:40.641Z,98278.16
2024-03-02T21:48:15.639Z,98274.30
2024-03-02T21:50:51.759Z,98266.09
2024-03-02T21:53:20.044Z,98253.83
2024-03-02T21:55:54.172Z,98245.18
2024-03-02T21:58:27.858Z,98231.20
2024-03-02T22:01:03.068Z,98217.03
2024-03-02T22:03:47.078Z,98212.54
2024-03-02T22:06:44.812Z,98200.43
2024-03-02T22:09:21.131Z,98187.14
2024-03-02T22:12:03.989Z,98181.61
2024-03-02T22:14:39.438Z,98172.63
2024-03-02T22:17:13.550Z,98172.87
2024-03-02T22:19:44.701Z,98166.56
2024-03-02T22:22:18.488Z,98162.83
2024-03-02T22:24:52.325Z,98164.80
2024-03-02T22:27:24.183Z,98159.55
2024-03-02T22:29:52.751Z,98157.77
2024-03-02T22:32:23.379Z,98153.36
2024-03-02T22:34:54.275Z,98148.14
2024-03-02T22:37:27.005Z,98148.79
2024-03-02T22:39:56.438Z,98143.54
2024-03-02T22:42:24.381Z,98142.65
2024-03-02T22:45:01.056Z,98137.77
2024-03-02T22:47:31.644Z,98140.20
2024-03-02T22:50:27.192Z,98137.72
2024-03-02T22:52:57.318Z,98127.54
2024-03-02T22:58:48.904Z,98117.02
2024-03-02T23:01:21.718Z,98118.42
2024-03-02T23:03:53.382Z,98120.83
2024-03-02T23:06:29.794Z,98124.23
2024-03-02T23:09:00.712Z,98123.69
2024-03-02T23:11:35.035Z,98122.81
2024-03-02T23:14:07.514Z,98115.34
2024-03-02T23:16:38.540Z,98115.38
2024-03-02T23:19:09.340Z,98108.68
2024-03-02T23:21:42.721Z,98109.27
2024-03-02T23:24:16.494Z,98107.14
2024-03-02T23:26:50.080Z,98105.42
2024-03-02T23:29:22.981Z,98102.05
2024-03-02T23:31:52.677Z,98094.28
2024-03-02T23:34:34.983Z,98094.45
2024-03-02T23:37:10.442Z,98088.13
2024-03-02T23:40:02.340Z,98088.45
2024-03-02T23:42:39.161Z,98091.04
2024-03-02T23:45:12.212Z,98086.76
2024-03-02T23:47:46.476Z,98084.95
2024-03-02T23:50:20.156Z,98084.23
2024-03-02T23:52:48.431Z,98078.47
2024-03-02T23:55:22.945Z,98075.00
2024-03-02T23:57:58.766Z,98074.30
